Time;durP1;ratioP1;P1;durP2;ratioP2;P2;SDS_P1;SDS_P2;PMS_P1;PMS_P2;Temp;Humidity;BMP_temperature;BMP_pressure;BME280_temperature;BME280_humidity;BME280_pressure;Samples;Min_cycle;Max_cycle;Signal;HPM_P1;HPM_P2
2022/08/18 00:00:08;;;;;;;3.58;1.80;;;21.70;99.90;;;21.97;100.00;99994.91;4953479;28;20217;-66
2022/08/18 00:02:44;;;;;;;5.25;2.30;;;;;;;21.93;100.00;99987.06;4936814;28;20223;-66
2022/08/18 00:05:27;;;;;;;4.32;1.95;;;;;;;21.91;100.00;99994.31;4944083;28;20232;-66
2022/08/18 00:07:58;;;;;;;3.20;1.83;;;;;;;21.90;100.00;99997.97;4958941;28;20223;-65
2022/08/18 00:10:26;;;;;;;3.17;1.60;;;;;;;21.86;100.00;100001.72;4932045;28;20205;-65
2022/08/18 00:12:54;;;;;;;2.78;1.45;;;;;;;21.79;100.00;100000.25;4934568;28;20205;-65
2022/08/18 00:15:28;;;;;;;4.15;1.85;;;;;;;21.72;100.00;100015.78;4951062;28;20249;-66
2022/08/18 00:17:56;;;;;;;1.83;1.02;;;;;;;21.66;100.00;100008.84;4941748;28;20214;-66
2022/08/18 00:20:25;;;;;;;2.42;1.30;;;;;;;21.65;100.00;100009.78;4917542;28;20209;-66
2022/08/18 00:22:55;;;;;;;3.47;2.15;;;;;;;21.46;100.00;100014.22;4921771;28;20241;-66
2022/08/18 00:25:24;;;;;;;4.38;2.05;;;;;;;21.35;100.00;100009.28;4932390;28;20232;-66
2022/08/18 00:27:52;;;;;;;3.60;1.70;;;;;;;21.26;100.00;100017.75;4912491;28;20206;-65
2022/08/18 00:30:21;;;;;;;3.05;1.83;;;21.10;99.90;;;21.09;100.00;100029.16;4907271;28;20217;-66
2022/08/18 00:33:00;;;;;;;3.58;1.67;;;21.00;99.90;;;21.03;100.00;100039.28;4951486;28;20233;-66
2022/08/18 00:35:35;;;;;;;1.52;1.02;;;20.90;99.90;;;20.98;100.00;100042.16;4966780;28;20237;-66
2022/08/18 00:38:07;;;;;;;3.92;2.10;;;20.90;99.90;;;20.89;100.00;100061.34;4949034;28;20208;-66
2022/08/18 00:40:52;;;;;;;2.40;1.25;;;20.90;99.90;;;20.75;100.00;100067.22;4950193;28;20213;-65
2022/08/18 00:43:48;;;;;;;3.40;1.88;;;21.40;99.90;;;20.83;100.00;100101.00;4933392;28;20232;-65
2022/08/18 00:46:25;;;;;;;3.17;1.80;;;20.80;99.90;;;20.72;100.00;100104.06;4912882;28;20229;-65
2022/08/18 00:48:53;;;;;;;4.00;1.92;;;;;;;20.64;100.00;100119.59;4943271;28;20221;-65
2022/08/18 00:51:33;;;;;;;3.92;1.90;;;20.70;99.90;;;20.71;100.00;100153.38;4912048;28;20212;-65
2022/08/18 00:54:13;;;;;;;3.92;2.08;;;20.70;99.90;;;20.62;100.00;100173.41;4957058;28;20213;-65
2022/08/18 00:56:48;;;;;;;3.08;1.63;;;20.60;99.90;;;20.44;100.00;100182.13;4974666;28;20225;-65
2022/08/18 00:59:22;;;;;;;4.15;2.00;;;;;;;20.45;100.00;100205.34;4960627;28;20211;-65
2022/08/18 01:01:51;;;;;;;2.33;1.35;;;20.50;99.90;;;20.41;100.00;100225.19;4944797;28;20213;-66
2022/08/18 01:04:34;;;;;;;2.28;1.25;;;20.40;99.90;;;20.21;100.00;100225.84;4950840;28;20229;-65
2022/08/18 01:07:44;;;;;;;3.22;1.77;;;20.30;99.90;;;20.24;100.00;100230.25;4957754;28;20212;-65
2022/08/18 01:10:15;;;;;;;4.78;2.20;;;20.20;99.90;;;20.21;100.00;100243.75;4953908;28;20248;-66
2022/08/18 01:12:51;;;;;;;5.45;2.47;;;20.20;99.90;;;20.09;100.00;100242.38;4950301;28;20209;-65
2022/08/18 01:15:22;;;;;;;4.40;2.22;;;20.10;99.90;;;20.08;100.00;100262.09;4926287;28;20224;-66
2022/08/18 01:23:52;;;;;;;6.80;2.95;;;19.70;99.90;;;19.81;100.00;100304.09;4937505;29;20241;-65
2022/08/18 01:26:21;;;;;;;6.20;2.92;;;19.80;99.90;;;19.65;100.00;100316.22;4949017;28;20248;-65
2022/08/18 01:28:51;;;;;;;5.60;2.65;;;;;;;19.61;100.00;100333.34;4951900;28;20201;-65
2022/08/18 01:31:41;;;;;;;6.60;2.90;;;20.10;99.90;;;19.68;100.00;100361.75;4898713;28;20213;-65
2022/08/18 01:34:24;;;;;;;5.55;2.63;;;19.70;99.90;;;19.63;100.00;100361.88;4940695;28;20224;-65
2022/08/18 01:36:53;;;;;;;2.47;1.25;;;19.70;99.90;;;19.68;100.00;100370.69;4958048;28;20789;-65
2022/08/18 01:39:22;;;;;;;3.03;1.70;;;;;;;19.66;100.00;100377.00;4969203;28;20206;-66
2022/08/18 01:42:13;;;;;;;4.85;2.20;;;19.60;99.90;;;19.66;100.00;100385.94;4925904;28;20213;-65
2022/08/18 01:44:43;;;;;;;7.32;2.95;;;;;;;19.56;100.00;100388.94;4938561;28;20225;-65
2022/08/18 01:47:11;;;;;;;5.70;2.58;;;19.60;99.90;;;19.59;100.00;100402.25;4942930;28;20208;-65
2022/08/18 01:49:41;;;;;;;1.02;0.55;;;19.50;99.90;;;19.60;100.00;100406.69;4938959;28;20213;-65
2022/08/18 01:52:16;;;;;;;7.35;3.35;;;19.60;99.90;;;19.63;100.00;100410.16;4953418;28;20222;-65
2022/08/18 01:54:49;;;;;;;4.18;1.85;;;;;;;19.64;100.00;100421.78;4952748;28;20201;-65
2022/08/18 01:57:19;;;;;;;3.70;1.83;;;19.60;99.90;;;19.46;100.00;100415.06;4939705;28;20216;-65
2022/08/18 01:59:47;;;;;;;4.25;2.15;;;;;;;19.40;100.00;100432.19;4961588;28;20556;-64
2022/08/18 02:02:23;;;;;;;3.33;1.75;;;19.50;99.90;;;19.43;100.00;100440.16;4953910;28;20240;-65
2022/08/18 02:04:58;;;;;;;3.35;1.73;;;19.40;99.90;;;19.44;100.00;100460.69;4948292;28;20233;-65
2022/08/18 02:07:26;;;;;;;4.80;2.30;;;;;;;19.23;100.00;100450.53;4946482;28;20209;-65
2022/08/18 02:10:06;;;;;;;3.13;1.58;;;19.30;99.90;;;19.28;100.00;100459.34;4914281;28;20267;-65
2022/08/18 02:12:40;;;;;;;4.50;2.13;;;19.30;99.90;;;19.25;100.00;100456.75;4936657;28;20208;-65
2022/08/18 02:15:09;;;;;;;5.65;2.63;;;19.30;99.90;;;19.23;100.00;100453.22;4934946;28;20228;-65
2022/08/18 02:17:40;;;;;;;4.50;2.22;;;19.20;99.90;;;19.20;100.00;100469.38;4949578;28;20232;-65
2022/08/18 02:20:12;;;;;;;5.35;2.63;;;19.30;99.90;;;19.28;100.00;100474.56;4951384;28;20975;-65
2022/08/18 02:22:42;;;;;;;4.13;1.88;;;19.30;99.90;;;19.29;100.00;100471.84;4965953;28;20209;-65
2022/08/18 02:25:11;;;;;;;5.13;2.67;;;;;;;19.26;100.00;100473.72;4949354;28;20237;-65
2022/08/18 02:27:39;;;;;;;5.80;2.55;;;;;;;19.33;100.00;100483.34;4935884;28;20229;-65
2022/08/18 02:30:13;;;;;;;5.68;2.63;;;19.60;99.90;;;19.29;100.00;100481.69;4951324;28;20201;-65
2022/08/18 02:32:41;;;;;;;5.32;2.60;;;;;;;19.38;100.00;100476.06;4949225;28;20201;-65
2022/08/18 02:35:10;;;;;;;5.13;2.33;;;19.30;99.90;;;19.39;100.00;100457.25;4933979;28;20233;-65
2022/08/18 02:37:41;;;;;;;5.70;2.35;;;19.30;99.90;;;19.32;100.00;100476.22;4949496;28;20589;-65
2022/08/18 02:40:11;;;;;;;7.03;2.90;;;19.20;99.90;;;19.15;100.00;100488.28;4951659;28;20214;-65
2022/08/18 02:42:44;;;;;;;5.63;2.78;;;19.10;99.90;;;19.10;100.00;100502.72;4968613;28;20201;-65
2022/08/18 02:45:13;;;;;;;6.47;3.03;;;19.10;99.90;;;19.09;100.00;100515.22;4938496;28;20244;-65
2022/08/18 02:47:42;;;;;;;6.05;2.70;;;;;;;19.14;100.00;100520.47;4932557;29;20213;-65
2022/08/18 02:50:12;;;;;;;5.63;2.85;;;19.10;99.90;;;19.18;100.00;100525.72;4942417;28;20209;-65
2022/08/18 02:52:40;;;;;;;3.65;2.05;;;;;;;19.18;100.00;100520.38;4955522;28;20676;-65
2022/08/18 02:55:09;;;;;;;4.60;2.35;;;19.10;99.90;;;19.11;100.00;100515.19;4944010;28;20245;-65
2022/08/18 02:57:45;;;;;;;6.18;2.67;;;19.10;99.90;;;19.14;100.00;100510.63;4956837;28;20668;-65
2022/08/18 03:00:16;;;;;;;7.00;2.90;;;19.10;99.90;;;19.03;100.00;100523.44;4922287;28;20216;-65
2022/08/18 03:02:50;;;;;;;4.38;2.15;;;19.00;99.90;;;19.00;100.00;100528.84;4942665;28;20212;-65
2022/08/18 03:05:19;;;;;;;4.80;2.22;;;;;;;18.94;100.00;100538.84;4953179;28;20229;-65
2022/08/18 03:07:49;;;;;;;7.13;2.47;;;;;;;18.91;100.00;100546.97;4942818;28;20208;-65
2022/08/18 03:10:17;;;;;;;5.35;2.60;;;;;;;18.93;100.00;100551.38;4937585;28;20596;-65
2022/08/18 03:13:01;;;;;;;5.25;2.45;;;;;;;18.88;100.00;100550.59;4902897;28;20217;-65
2022/08/18 03:15:29;;;;;;;3.15;1.30;;;;;;;18.86;100.00;100539.03;4931780;28;20233;-65
2022/08/18 03:17:58;;;;;;;4.43;1.92;;;;;;;18.85;100.00;100542.63;4935941;28;20209;-65
2022/08/18 03:20:26;;;;;;;7.13;2.78;;;;;;;18.79;100.00;100530.25;4908045;28;20205;-65
2022/08/18 03:22:59;;;;;;;5.57;2.17;;;;;;;18.76;100.00;100530.31;4955970;28;20245;-65
2022/08/18 03:25:47;;;;;;;6.55;2.85;;;18.70;99.90;;;18.77;100.00;100532.06;4944451;28;20620;-65
2022/08/18 03:28:16;;;;;;;6.82;2.67;;;18.70;99.90;;;18.79;100.00;100542.75;4949891;28;20213;-65
2022/08/18 03:30:44;;;;;;;8.13;3.15;;;;;;;18.62;100.00;100548.50;4940676;28;20209;-65
2022/08/18 03:33:12;;;;;;;6.40;2.30;;;;;;;18.64;100.00;100552.03;4916704;28;20214;-65
2022/08/18 03:35:41;;;;;;;2.63;1.02;;;;;;;18.68;100.00;100552.84;4934302;28;20236;-65
2022/08/18 03:38:10;;;;;;;3.80;1.77;;;;;;;18.67;100.00;100562.69;4952256;28;20205;-65
2022/08/18 03:40:38;;;;;;;5.57;2.33;;;;;;;18.65;100.00;100555.59;4905079;28;20212;-65
2022/08/18 03:43:06;;;;;;;5.50;2.20;;;;;;;18.70;100.00;100561.72;4920480;28;20220;-65
2022/08/18 03:45:54;;;;;;;8.15;3.17;;;;;;;18.67;100.00;100564.47;4937370;28;20240;-64
2022/08/18 03:48:24;;;;;;;8.20;3.10;;;;;;;18.67;100.00;100559.13;4951372;28;20218;-65
2022/08/18 03:50:52;;;;;;;7.10;2.92;;;;;;;18.74;100.00;100560.75;4937155;28;20216;-65
2022/08/18 03:53:20;;;;;;;6.30;2.67;;;;;;;18.77;100.00;100556.19;4928673;29;20221;-65
2022/08/18 03:55:48;;;;;;;3.38;1.65;;;;;;;18.82;100.00;100546.25;4949898;28;20244;-65
2022/08/18 03:58:16;;;;;;;4.50;2.15;;;;;;;18.78;100.00;100549.91;4950313;28;20213;-65
2022/08/18 04:00:44;;;;;;;4.35;1.92;;;;;;;18.81;100.00;100546.28;4933388;29;20220;-65
2022/08/18 04:03:13;;;;;;;7.70;3.00;;;;;;;18.81;100.00;100538.25;4931848;28;20209;-65
2022/08/18 04:05:41;;;;;;;8.45;3.03;;;;;;;18.76;100.00;100529.44;4936469;28;20247;-65
2022/08/18 04:08:09;;;;;;;7.93;2.80;;;;;;;18.86;100.00;100528.31;4951125;28;20217;-65
2022/08/18 04:10:37;;;;;;;7.22;2.65;;;;;;;18.87;100.00;100522.03;4937070;28;20209;-65
2022/08/18 04:13:05;;;;;;;7.15;2.78;;;;;;;18.85;100.00;100527.41;4936813;28;20217;-65
2022/08/18 04:15:33;;;;;;;7.97;2.85;;;;;;;18.85;100.00;100523.88;4952875;28;20264;-65
2022/08/18 04:18:03;;;;;;;8.00;2.78;;;;;;;18.84;100.00;100527.47;4938587;28;20217;-65
2022/08/18 04:20:32;;;;;;;7.97;3.08;;;;;;;18.76;100.00;100527.63;4951968;28;20221;-65
2022/08/18 04:23:01;;;;;;;7.10;2.70;;;18.80;99.90;;;18.79;100.00;100532.94;4936764;28;20213;-65
2022/08/18 04:25:31;;;;;;;6.18;2.35;;;;;;;18.83;100.00;100533.75;4952200;28;20241;-65
2022/08/18 04:28:02;;;;;;;3.97;1.50;;;;;;;18.79;100.00;100526.69;4935519;28;20216;-65
2022/08/18 04:30:30;;;;;;;4.85;1.88;;;;;;;18.85;100.00;100537.25;4917137;29;20210;-65
2022/08/18 04:33:01;;;;;;;8.32;3.05;;;18.80;99.90;;;18.86;100.00;100536.34;4929126;28;20213;-65
2022/08/18 04:35:29;;;;;;;7.10;2.85;;;18.80;99.90;;;18.85;100.00;100546.19;4932245;28;20232;-65
2022/08/18 04:37:58;;;;;;;4.63;1.95;;;;;;;18.85;100.00;100546.19;4931440;29;20205;-65
2022/08/18 04:40:26;;;;;;;8.82;3.97;;;;;;;18.80;100.00;100563.28;4960842;28;20586;-65
2022/08/18 04:42:54;;;;;;;4.70;2.35;;;;;;;18.85;100.00;100583.69;4947793;28;20216;-65
2022/08/18 04:45:22;;;;;;;7.20;2.80;;;;;;;18.78;100.00;100578.50;4935607;28;20237;-65
2022/08/18 04:47:52;;;;;;;5.05;2.10;;;;;;;18.70;100.00;100593.88;4936482;28;20217;-65
2022/08/18 04:50:20;;;;;;;5.95;2.42;;;;;;;18.73;100.00;100605.41;4922865;29;20209;-65
2022/08/18 04:55:35;;;;;;;5.72;2.60;;;;;;;18.77;100.00;100611.56;4919815;28;20705;-65
2022/08/18 04:58:03;;;;;;;5.47;2.65;;;;;;;18.88;100.00;100622.94;4947756;28;20273;-65
2022/08/18 05:00:31;;;;;;;4.85;2.75;;;;;;;18.82;100.00;100628.44;4920523;28;20217;-65
2022/08/18 05:02:59;;;;;;;2.15;1.25;;;;;;;18.73;100.00;100632.19;4951536;28;20209;-65
2022/08/18 05:05:27;;;;;;;2.97;1.45;;;;;;;18.80;100.00;100652.59;4935273;28;20237;-65
2022/08/18 05:07:56;;;;;;;5.28;2.03;;;;;;;18.77;100.00;100655.31;4920940;28;20213;-66
2022/08/18 05:10:24;;;;;;;3.55;1.63;;;;;;;18.78;100.00;100661.56;4951497;28;20213;-65
2022/08/18 05:12:53;;;;;;;4.00;1.83;;;;;;;18.73;100.00;100663.47;4933523;29;20221;-65
2022/08/18 05:15:21;;;;;;;6.30;2.83;;;;;;;18.71;100.00;100655.44;4930660;28;20592;-65
2022/08/18 05:17:49;;;;;;;4.25;1.77;;;;;;;18.80;100.00;100665.09;4923532;28;20213;-65
2022/08/18 05:20:19;;;;;;;5.07;2.47;;;;;;;18.72;100.00;100673.28;4930904;28;20717;-65
2022/08/18 05:22:48;;;;;;;3.90;1.98;;;;;;;18.77;100.00;100682.13;4950832;28;20467;-65
2022/08/18 05:25:16;;;;;;;2.47;1.13;;;;;;;18.74;100.00;100687.53;4915239;28;20233;-65
2022/08/18 05:27:44;;;;;;;5.53;2.50;;;;;;;18.65;100.00;100700.25;4951330;28;20201;-65
2022/08/18 05:30:14;;;;;;;3.85;2.05;;;;;;;18.71;100.00;100695.63;4950174;28;20220;-65
2022/08/18 05:32:46;;;;;;;4.28;2.47;;;18.70;99.90;;;18.70;100.00;100691.19;4948641;28;20220;-65
2022/08/18 05:35:44;;;;;;;5.72;2.22;;;18.70;99.90;;;18.80;100.00;100684.72;4933281;28;20213;-65
2022/08/18 05:38:37;;;;;;;5.22;2.47;;;18.30;99.90;;;18.77;100.00;100678.56;4912155;28;20206;-65
2022/08/18 05:41:27;;;;;;;8.18;3.03;;;18.80;99.90;;;18.81;100.00;100686.50;4943273;28;20678;-65
2022/08/18 05:43:57;;;;;;;6.85;2.70;;;18.80;99.90;;;18.87;100.00;100690.84;4951229;28;20202;-65
2022/08/18 05:46:41;;;;;;;6.68;3.05;;;18.80;99.90;;;18.91;100.00;100683.63;4945227;28;20237;-65
2022/08/18 05:49:12;;;;;;;5.53;2.50;;;18.90;99.90;;;18.97;100.00;100683.50;4936115;28;20202;-65
2022/08/18 05:51:56;;;;;;;2.13;0.93;;;18.90;99.90;;;19.01;100.00;100691.44;4954742;28;20213;-65
2022/08/18 05:57:24;;;;;;;6.07;2.65;;;18.90;99.90;;;18.99;100.00;100693.28;4953551;28;20221;-65
2022/08/18 05:59:53;;;;;;;5.50;2.40;;;18.90;99.90;;;19.03;100.00;100694.09;4922785;28;20204;-65
2022/08/18 06:02:46;;;;;;;6.00;2.65;;;19.20;99.90;;;19.11;100.00;100698.38;4938364;28;20815;-65
2022/08/18 06:05:26;;;;;;;5.18;2.42;;;19.10;99.90;;;19.15;100.00;100680.41;4952109;28;20265;-65
2022/08/18 06:08:03;;;;;;;3.05;1.52;;;19.10;99.90;;;19.30;100.00;100676.50;4942772;28;20213;-65
2022/08/18 06:10:32;;;;;;;7.70;3.92;;;19.20;99.90;;;19.35;100.00;100688.00;4933455;28;20677;-65
2022/08/18 06:13:02;;;;;;;5.00;2.28;;;19.30;99.90;;;19.30;100.00;100673.81;4954159;28;20212;-65
2022/08/18 06:16:12;;;;;;;4.65;2.25;;;18.90;99.90;;;19.22;100.00;100657.91;4955593;28;20244;-65
2022/08/18 06:19:04;;;;;;;4.97;2.53;;;19.20;99.90;;;19.26;100.00;100639.94;4964498;28;20216;-65
2022/08/18 06:22:14;;;;;;;4.93;2.40;;;19.20;99.90;;;19.40;100.00;100629.78;4969858;28;20221;-65
2022/08/18 06:24:54;;;;;;;3.25;1.60;;;;;;;19.44;100.00;100623.41;4952948;28;20221;-65
2022/08/18 06:27:54;;;;;;;3.67;1.80;;;19.40;99.90;;;19.44;100.00;100615.38;4947498;28;20613;-66
2022/08/18 06:30:45;;;;;;;3.50;1.77;;;19.40;99.90;;;19.49;100.00;100598.25;4952838;28;20213;-65
2022/08/18 06:33:56;;;;;;;5.53;2.70;;;19.70;99.90;;;19.63;100.00;100579.19;4950999;29;20201;-65
2022/08/18 06:36:26;;;;;;;3.33;1.70;;;19.90;99.90;;;19.61;100.00;100566.75;4935600;28;20226;-65
2022/08/18 06:39:30;;;;;;;4.82;3.38;;;19.70;99.90;;;19.61;100.00;100564.94;4948826;28;20206;-64
2022/08/18 06:41:59;;;;;;;3.88;2.05;;;;;;;19.63;100.00;100556.84;4937253;28;20224;-64
2022/08/18 06:44:44;;;;;;;4.20;2.50;;;19.00;99.90;;;19.58;100.00;100561.44;4936560;28;20209;-64
2022/08/18 06:48:03;;;;;;;4.50;2.35;;;19.70;99.90;;;19.61;100.00;100567.63;4936806;28;20573;-65
2022/08/18 06:50:52;;;;;;;1.65;0.90;;;19.50;99.90;;;19.62;100.00;100572.06;4964706;28;20217;-65
2022/08/18 06:53:20;;;;;;;4.80;2.55;;;19.50;99.90;;;19.66;100.00;100576.44;4962160;28;20213;-66
2022/08/18 06:55:55;;;;;;;5.40;2.75;;;;;;;19.73;100.00;100577.16;4951520;28;20595;-66
2022/08/18 06:58:30;;;;;;;3.83;1.95;;;19.20;99.90;;;19.74;100.00;100576.22;4931331;28;20214;-67
2022/08/18 07:01:04;;;;;;;3.35;1.70;;;19.60;99.90;;;19.84;100.00;100574.19;4938126;28;20205;-67
2022/08/18 07:03:42;;;;;;;4.93;2.35;;;19.60;99.90;;;19.85;100.00;100557.16;4935466;29;20216;-66
2022/08/18 07:06:27;;;;;;;4.50;2.05;;;19.70;99.90;;;19.96;100.00;100565.78;4942927;28;20244;-66
2022/08/18 07:09:21;;;;;;;6.60;2.97;;;19.80;99.90;;;20.07;100.00;100586.06;4933406;28;20217;-66
2022/08/18 07:12:08;;;;;;;6.40;2.78;;;20.30;99.90;;;20.08;100.00;100573.50;4935361;28;20206;-66
2022/08/18 07:14:47;;;;;;;6.35;2.67;;;20.00;99.90;;;20.16;100.00;100560.75;4934377;28;20224;-67
2022/08/18 07:17:29;;;;;;;7.43;3.05;;;20.00;99.90;;;20.15;100.00;100556.31;4919194;28;20704;-66
2022/08/18 07:20:21;;;;;;;5.18;2.65;;;20.10;99.90;;;20.29;100.00;100555.91;4920147;28;20225;-66
2022/08/18 07:23:02;;;;;;;4.78;2.45;;;20.20;99.90;;;20.43;100.00;100561.78;4935302;28;20693;-66
2022/08/18 07:25:43;;;;;;;5.50;2.88;;;20.20;99.90;;;20.44;100.00;100560.88;4934332;28;20240;-66
2022/08/18 07:28:35;;;;;;;4.03;2.00;;;21.10;99.90;;;20.37;100.00;100556.56;4948560;28;20212;-66
2022/08/18 07:31:36;;;;;;;4.22;2.42;;;20.40;99.90;;;20.57;100.00;100575.69;4949559;28;20209;-66
2022/08/18 07:34:15;;;;;;;4.60;2.35;;;20.40;99.90;;;20.61;100.00;100582.75;4911276;28;20216;-66
2022/08/18 07:37:01;;;;;;;5.63;2.72;;;20.60;99.90;;;20.68;100.00;100587.00;4948750;28;20241;-66
2022/08/18 07:39:37;;;;;;;4.68;2.25;;;20.50;99.90;;;20.82;100.00;100618.00;4945178;28;20225;-66
2022/08/18 07:42:23;;;;;;;5.63;2.65;;;20.60;99.90;;;20.72;100.00;100598.53;4935247;28;20216;-66
2022/08/18 07:45:22;;;;;;;5.05;2.53;;;20.60;99.90;;;20.78;100.00;100596.56;4953941;28;20233;-66
2022/08/18 07:48:39;;;;;;;8.00;3.33;;;20.90;99.90;;;20.91;100.00;100605.16;4931612;28;20607;-66
2022/08/18 07:51:27;;;;;;;4.75;2.40;;;20.70;99.90;;;20.80;100.00;100566.06;4943054;28;20201;-66
2022/08/18 07:54:42;;;;;;;7.40;3.00;;;20.80;99.90;;;20.97;100.00;100569.13;4958420;28;20212;-67
2022/08/18 07:57:36;;;;;;;6.13;2.70;;;21.00;99.90;;;21.02;100.00;100561.81;4919320;28;20209;-67
2022/08/18 08:00:28;;;;;;;6.03;2.58;;;21.60;99.90;;;21.40;100.00;100579.41;4966417;28;20220;-67
2022/08/18 08:03:23;;;;;;;7.75;3.92;;;21.30;99.90;;;21.61;100.00;100580.50;4938256;28;20217;-67
2022/08/18 08:06:44;;;;;;;2.15;1.27;;;22.30;99.90;;;21.73;100.00;100589.03;4947089;28;20229;-67
2022/08/18 08:10:17;;;;;;;0.60;0.32;;;21.60;99.90;;;21.68;100.00;100582.06;4933025;28;20244;-67
2022/08/18 08:13:20;;;;;;;6.85;2.75;;;21.50;99.90;;;21.75;100.00;100559.38;4955592;28;20212;-67
2022/08/18 08:16:13;;;;;;;4.72;1.90;;;;;;;21.82;100.00;100541.19;4922109;28;20248;-67
2022/08/18 08:18:45;;;;;;;5.60;2.60;;;;;;;21.95;100.00;100578.41;4936199;28;20209;-67
2022/08/18 08:21:29;;;;;;;0.60;0.60;;;21.90;99.90;;;21.98;100.00;100562.13;4944251;28;20228;-67
2022/08/18 08:24:18;;;;;;;0.35;0.35;;;22.20;99.90;;;21.85;100.00;100539.28;4926086;28;20217;-67
2022/08/18 08:26:59;;;;;;;0.30;0.30;;;;;;;21.92;100.00;100550.69;4909919;28;20229;-67
2022/08/18 08:29:49;;;;;;;0.40;0.40;;;22.10;99.90;;;21.99;100.00;100555.81;4889967;28;20249;-67
2022/08/18 08:32:41;;;;;;;0.10;0.10;;;22.20;99.90;;;22.06;100.00;100564.59;4939212;28;20213;-66
2022/08/18 08:35:25;;;;;;;0.10;0.10;;;22.40;99.90;;;22.17;100.00;100558.84;4955420;28;20417;-66
2022/08/18 08:38:45;;;;;;;0.10;0.10;;;22.00;99.90;;;22.11;100.00;100549.16;4936423;28;20223;-67
2022/08/18 08:41:34;;;;;;;0.10;0.10;;;22.20;99.90;;;22.19;100.00;100547.06;4938380;28;20252;-66
2022/08/18 08:44:22;;;;;;;0.30;0.30;;;;;;;21.96;100.00;100525.41;4928162;28;20205;-66
2022/08/18 08:47:00;;;;;;;0.10;0.10;;;22.40;99.90;;;22.24;100.00;100558.56;4927083;28;20228;-66
2022/08/18 08:49:37;;;;;;;0.10;0.10;;;22.40;99.90;;;22.01;100.00;100527.00;4951276;28;20200;-66
2022/08/18 08:52:16;;;;;;;0.10;0.10;;;22.40;99.90;;;22.06;100.00;100534.06;4949887;28;20222;-66
2022/08/18 08:54:49;;;;;;;0.28;0.20;;;22.40;99.90;;;21.97;100.00;100536.13;4966289;28;20213;-66
2022/08/18 08:57:21;;;;;;;0.10;0.10;;;22.60;99.90;;;22.12;100.00;100559.00;4944623;28;20579;-66
2022/08/18 08:59:50;;;;;;;0.00;0.00;;;;;;;22.19;100.00;100583.91;4919836;28;20204;-66
2022/08/18 09:02:48;;;;;;;0.20;0.20;;;23.10;99.90;;;22.18;100.00;100583.03;4922427;28;20205;-66
2022/08/18 09:05:50;;;;;;;0.90;0.90;;;22.70;99.90;;;22.01;100.00;100577.31;4934393;28;20225;-66
2022/08/18 09:08:38;;;;;;;0.10;0.10;;;;;;;21.71;100.00;100569.38;4944129;28;20228;-66
2022/08/18 09:11:42;;;;;;;0.10;0.10;;;22.30;99.90;;;21.72;100.00;100586.41;4915674;28;20208;-66
2022/08/18 09:14:22;;;;;;;0.10;0.10;;;22.10;99.90;;;21.61;100.00;100578.69;4945425;28;20223;-66
2022/08/18 09:17:33;;;;;;;0.10;0.10;;;22.30;99.90;;;21.74;100.00;100579.16;4975849;28;20240;-66
2022/08/18 09:20:39;;;;;;;0.15;0.15;;;21.90;99.90;;;21.91;100.00;100589.34;4932050;28;20205;-67
2022/08/18 09:23:22;;;;;;;0.20;0.20;;;22.50;99.90;;;22.01;100.00;100588.94;4969040;28;20212;-67
2022/08/18 09:25:54;;;;;;;0.00;0.00;;;22.20;99.90;;;21.72;100.00;100549.59;4956016;28;20225;-67
2022/08/18 09:28:41;;;;;;;0.30;0.30;;;;;;;21.78;100.00;100558.38;4958354;28;20228;-66
2022/08/18 09:31:09;;;;;;;0.28;0.28;;;;;;;21.87;100.00;100572.41;4945916;28;20213;-67
2022/08/18 09:33:41;;;;;;;0.10;0.10;;;22.00;99.90;;;22.02;100.00;100582.66;4971780;28;20215;-66
2022/08/18 09:36:50;;;;;;;0.20;0.20;;;21.90;99.90;;;21.64;100.00;100567.81;4937249;28;20247;-66
2022/08/18 09:42:26;;;;;;;0.30;0.30;;;21.80;99.90;;;21.61;100.00;100557.16;4939003;28;20227;-66
2022/08/18 09:45:29;;;;;;;0.40;0.40;;;21.20;99.90;;;21.58;100.00;100556.38;4959218;28;20236;-67
2022/08/18 09:48:30;;;;;;;0.32;0.32;;;21.70;99.90;;;21.58;100.00;100562.66;4932100;28;20231;-66
2022/08/18 09:51:23;;;;;;;0.20;0.20;;;21.70;99.90;;;21.64;100.00;100569.63;4933935;28;20208;-66
2022/08/18 09:54:07;;;;;;;0.40;0.40;;;21.70;99.90;;;21.57;100.00;100557.31;4930874;28;20224;-66
2022/08/18 09:56:50;;;;;;;0.20;0.20;;;21.90;99.90;;;21.76;100.00;100579.09;4949965;28;20234;-66
2022/08/18 09:59:31;;;;;;;0.08;0.08;;;21.90;99.90;;;21.77;100.00;100570.09;4946372;28;20213;-66
2022/08/18 10:02:02;;;;;;;0.20;0.20;;;;;;;21.93;100.00;100577.56;4968024;28;20205;-65
2022/08/18 10:04:47;;;;;;;0.47;0.47;;;;;;;21.45;100.00;100518.25;4970683;28;20208;-65
2022/08/18 10:07:38;;;;;;;0.10;0.10;;;21.50;99.90;;;21.38;100.00;100511.31;4929751;28;20228;-65
2022/08/18 10:10:25;;;;;;;0.50;0.50;;;21.50;99.90;;;21.68;100.00;100547.06;4930241;28;20200;-65
2022/08/18 10:13:22;;;;;;;0.20;0.20;;;;;;;22.00;100.00;100571.03;4951545;28;20212;-65
2022/08/18 10:16:07;;;;;;;0.20;0.20;;;;;;;21.81;100.00;100534.06;4939401;28;20236;-65
2022/08/18 10:19:23;;;;;;;0.30;0.30;;;21.90;99.90;;;22.02;100.00;100587.13;4943609;28;20214;-66
2022/08/18 10:22:43;;;;;;;0.32;0.32;;;21.60;99.90;;;21.73;100.00;100564.81;4968015;28;20209;-67
2022/08/18 10:25:13;;;;;;;0.30;0.30;;;;;;;21.57;100.00;100533.09;4931235;28;20221;-67
2022/08/18 10:28:04;;;;;;;0.30;0.30;;;;;;;21.66;100.00;100559.69;4941860;28;20228;-67
2022/08/18 10:30:33;;;;;;;0.30;0.30;;;;;;;21.64;100.00;100561.56;4916157;28;20232;-67
2022/08/18 10:34:01;;;;;;;0.20;0.20;;;21.60;99.90;;;21.74;100.00;100560.31;4916526;28;20212;-67
2022/08/18 10:36:59;;;;;;;0.30;0.30;;;20.90;99.90;;;21.64;100.00;100548.09;4909337;29;20308;-66
2022/08/18 10:39:46;;;;;;;0.50;0.50;;;21.60;99.90;;;21.70;100.00;100553.28;4889335;29;20225;-66
2022/08/18 10:42:44;;;;;;;0.50;0.50;;;21.80;99.90;;;21.86;100.00;100559.88;4926060;28;20209;-66
2022/08/18 10:45:25;;;;;;;0.20;0.20;;;21.80;99.90;;;21.69;100.00;100528.16;4940927;28;20247;-66
2022/08/18 10:48:21;;;;;;;0.10;0.10;;;21.50;99.90;;;21.52;100.00;100492.91;4941384;28;20232;-66
2022/08/18 10:51:10;;;;;;;0.95;0.68;;;21.40;99.90;;;21.59;100.00;100496.25;4900333;28;20204;-66
2022/08/18 10:53:57;;;;;;;0.70;0.70;;;21.40;99.90;;;21.46;100.00;100486.84;4942901;28;20209;-66
2022/08/18 10:56:49;;;;;;;0.22;0.22;;;21.50;99.90;;;21.72;100.00;100506.53;4933069;28;20220;-66
2022/08/18 11:00:01;;;;;;;0.10;0.10;;;21.50;99.90;;;21.61;100.00;100470.16;4949378;28;20205;-66
2022/08/18 11:03:26;;;;;;;0.50;0.50;;;21.50;99.90;;;21.94;100.00;100490.47;4950470;28;20232;-66
2022/08/18 11:06:24;;;;;;;0.50;0.50;;;21.80;99.90;;;22.03;100.00;100503.63;4934784;28;20236;-66
2022/08/18 11:08:58;;;;;;;0.28;0.28;;;21.90;99.90;;;21.93;100.00;100495.91;4927137;28;20225;-66
2022/08/18 11:11:41;;;;;;;0.32;0.32;;;21.80;99.90;;;21.71;100.00;100471.59;4951645;28;20220;-67
2022/08/18 11:14:41;;;;;;;0.00;0.00;;;21.70;99.90;;;21.75;100.00;100449.00;4950398;28;20223;-66
2022/08/18 11:17:33;;;;;;;0.17;0.17;;;21.80;99.90;;;21.93;100.00;100451.03;4958433;28;20225;-66
2022/08/18 11:20:08;;;;;;;0.10;0.10;;;21.80;99.90;;;22.04;100.00;100475.75;4948596;28;20213;-66
2022/08/18 11:22:37;;;;;;;0.28;0.28;;;;;;;22.29;100.00;100496.41;4944267;28;20203;-66
2022/08/18 11:25:25;;;;;;;0.35;0.35;;;22.60;99.90;;;22.40;100.00;100485.22;4929963;28;20236;-67
2022/08/18 11:27:56;;;;;;;0.20;0.20;;;;;;;22.22;100.00;100451.78;4914500;28;20248;-67
2022/08/18 11:30:47;;;;;;;0.20;0.20;;;22.30;99.90;;;22.32;100.00;100461.28;4898392;28;20208;-66
2022/08/18 11:33:18;;;;;;;0.20;0.20;;;22.30;99.90;;;22.71;100.00;100501.94;4949170;28;20209;-67
2022/08/18 11:35:56;;;;;;;0.15;0.15;;;22.50;99.90;;;22.68;100.00;100485.91;4935767;28;20239;-66
2022/08/18 11:38:27;;;;;;;0.20;0.20;;;22.50;99.90;;;22.64;100.00;100477.06;4947270;28;20209;-66